createdAt,value
2017-11-04T00:02:03.627Z,5.80
2017-11-04T00:04:32.720Z,5.80
2017-11-04T00:07:00.935Z,5.70
2017-11-04T00:09:28.382Z,5.70
2017-11-04T00:11:55.851Z,5.70
2017-11-04T00:14:23.268Z,5.70
2017-11-04T00:16:51.249Z,5.60
2017-11-04T00:19:19.115Z,5.60
2017-11-04T00:21:46.101Z,5.60
2017-11-04T00:24:13.102Z,5.60
2017-11-04T00:26:40.095Z,5.50
2017-11-04T00:29:07.310Z,5.50
2017-11-04T00:31:34.293Z,5.50
2017-11-04T00:34:01.807Z,5.50
2017-11-04T00:36:28.806Z,5.50
2017-11-04T00:38:55.790Z,5.40
2017-11-04T00:41:22.784Z,5.40
2017-11-04T00:43:49.790Z,5.40
2017-11-04T00:46:16.830Z,5.30
2017-11-04T00:48:43.816Z,5.30
2017-11-04T00:51:10.807Z,5.40
2017-11-04T00:53:38.574Z,5.30
2017-11-04T00:56:05.567Z,5.30
2017-11-04T00:58:32.570Z,5.30
2017-11-04T01:00:59.553Z,5.30
2017-11-04T01:03:27.474Z,5.30
2017-11-04T01:05:55.222Z,5.30
2017-11-04T01:08:22.983Z,5.30
2017-11-04T01:10:49.970Z,5.30
2017-11-04T01:13:16.966Z,5.30
2017-11-04T01:15:43.948Z,5.30
2017-11-04T01:18:10.945Z,5.20
2017-11-04T01:20:37.934Z,5.20
2017-11-04T01:23:04.930Z,5.30
2017-11-04T01:25:31.923Z,5.30
2017-11-04T01:27:58.931Z,5.30
2017-11-04T01:30:25.926Z,5.30
2017-11-04T01:32:52.906Z,5.30
2017-11-04T01:35:19.901Z,5.30
2017-11-04T01:37:46.885Z,5.30
2017-11-04T01:40:13.887Z,5.30
2017-11-04T01:42:41.638Z,5.40
2017-11-04T01:45:09.395Z,5.50
2017-11-04T01:47:36.381Z,5.50
2017-11-04T01:50:03.382Z,5.50
2017-11-04T01:52:30.372Z,5.50
2017-11-04T01:54:57.362Z,5.50
2017-11-04T01:57:24.345Z,5.50
2017-11-04T01:59:51.341Z,5.40
2017-11-04T02:02:18.330Z,5.50
2017-11-04T02:04:46.085Z,5.40
2017-11-04T02:07:13.836Z,5.40
2017-11-04T02:09:41.600Z,5.40
2017-11-04T02:12:08.587Z,5.40
2017-11-04T02:14:35.582Z,5.40
2017-11-04T02:17:02.582Z,5.40
2017-11-04T02:19:29.565Z,5.40
2017-11-04T02:21:56.558Z,5.40
2017-11-04T02:24:23.547Z,5.40
2017-11-04T02:26:50.538Z,5.40
2017-11-04T02:29:17.526Z,5.40
2017-11-04T02:31:44.523Z,5.40
2017-11-04T02:34:12.275Z,5.40
2017-11-04T02:36:39.276Z,5.40
2017-11-04T02:39:06.262Z,5.40
2017-11-04T02:41:34.026Z,5.30
2017-11-04T02:44:01.001Z,5.30
2017-11-04T02:46:28.006Z,5.40
2017-11-04T02:48:54.989Z,5.30
2017-11-04T02:51:21.989Z,5.30
2017-11-04T02:53:48.970Z,5.30
2017-11-04T02:56:15.966Z,5.30
2017-11-04T02:58:42.950Z,5.20
2017-11-04T03:01:10.706Z,5.20
2017-11-04T03:03:37.692Z,5.20
2017-11-04T03:06:04.681Z,5.20
2017-11-04T03:08:31.666Z,5.20
2017-11-04T03:10:58.658Z,5.20
2017-11-04T03:13:25.653Z,5.20
2017-11-04T03:15:53.273Z,5.10
2017-11-04T03:18:20.261Z,5.10
2017-11-04T03:20:47.254Z,5.20
2017-11-04T03:23:14.247Z,5.20
2017-11-04T03:25:42.001Z,5.20
2017-11-04T03:28:09.757Z,5.10
2017-11-04T03:30:37.506Z,5.20
2017-11-04T03:33:04.506Z,5.20
2017-11-04T03:35:31.490Z,5.20
2017-11-04T03:37:58.478Z,5.20
2017-11-04T03:40:25.471Z,5.30
2017-11-04T03:42:52.462Z,5.30
2017-11-04T03:45:20.214Z,5.30
2017-11-04T03:47:47.969Z,5.20
2017-11-04T03:50:15.726Z,5.20
2017-11-04T03:52:42.739Z,5.20
2017-11-04T03:55:09.727Z,5.30
2017-11-04T03:57:37.485Z,5.30
2017-11-04T04:00:06.073Z,5.30
2017-11-04T04:02:33.827Z,5.30
2017-11-04T04:05:00.838Z,5.30
2017-11-04T04:07:27.826Z,5.30
2017-11-04T04:09:55.583Z,5.40
2017-11-04T04:12:22.569Z,5.40
2017-11-04T04:14:49.554Z,5.40
2017-11-04T04:17:16.546Z,5.30
2017-11-04T04:19:43.538Z,5.30
2017-11-04T04:22:10.526Z,5.40
2017-11-04T04:24:38.289Z,5.50
2017-11-04T04:27:06.042Z,5.50
2017-11-04T04:29:33.801Z,5.50
2017-11-04T04:32:02.382Z,5.50
2017-11-04T04:34:30.142Z,5.60
2017-11-04T04:36:57.131Z,5.60
2017-11-04T04:39:24.125Z,5.70
2017-11-04T04:41:51.122Z,5.60
2017-11-04T04:44:18.110Z,5.60
2017-11-04T04:46:45.098Z,5.60
2017-11-04T04:49:12.089Z,5.60
2017-11-04T04:51:39.079Z,5.70
2017-11-04T04:54:06.862Z,5.70
2017-11-04T04:56:33.841Z,5.70
2017-11-04T04:59:00.835Z,5.70
2017-11-04T05:01:28.599Z,5.60
2017-11-04T05:03:56.354Z,5.60
2017-11-04T05:06:24.110Z,5.60
2017-11-04T05:08:51.862Z,5.70
2017-11-04T05:11:18.857Z,5.60
2017-11-04T05:13:45.841Z,5.70
2017-11-04T05:16:12.831Z,5.70
2017-11-04T05:18:39.823Z,5.70
2017-11-04T05:21:06.810Z,5.70
2017-11-04T05:23:34.559Z,5.70
2017-11-04T05:26:02.321Z,5.70
2017-11-04T05:28:29.306Z,5.70
2017-11-04T05:30:56.294Z,5.70
2017-11-04T05:33:23.286Z,5.80
2017-11-04T05:35:50.273Z,5.80
2017-11-04T05:38:17.258Z,5.80
2017-11-04T05:40:45.015Z,5.70
2017-11-04T05:43:12.773Z,5.70
2017-11-04T05:45:39.767Z,5.70
2017-11-04T05:48:06.760Z,5.70
2017-11-04T05:50:33.750Z,5.70
2017-11-04T05:53:00.734Z,5.70
2017-11-04T05:55:27.739Z,5.80
2017-11-04T05:57:54.726Z,5.80
2017-11-04T06:00:21.718Z,5.80
2017-11-04T06:02:48.707Z,5.80
2017-11-04T06:05:15.720Z,5.80
2017-11-04T06:07:42.697Z,5.90
2017-11-04T06:10:09.686Z,5.90
2017-11-04T06:12:37.446Z,5.90
2017-11-04T06:15:05.201Z,5.90
2017-11-04T06:17:32.201Z,5.90
2017-11-04T06:19:59.188Z,5.90
2017-11-04T06:22:26.950Z,5.90
2017-11-04T06:24:53.937Z,5.90
2017-11-04T06:27:20.934Z,5.90
2017-11-04T06:29:47.922Z,5.90
2017-11-04T06:32:14.914Z,5.90
2017-11-04T06:34:41.903Z,5.90
2017-11-04T06:37:08.898Z,6.00
2017-11-04T06:39:35.883Z,6.00
2017-11-04T06:42:03.642Z,6.10
2017-11-04T06:44:31.390Z,6.20
2017-11-04T06:46:58.386Z,6.20
2017-11-04T06:49:25.377Z,6.20
2017-11-04T06:51:52.377Z,6.30
2017-11-04T06:54:19.365Z,6.40
2017-11-04T06:56:46.375Z,6.50
2017-11-04T06:59:13.358Z,6.50
2017-11-04T07:01:40.358Z,6.50
2017-11-04T07:04:07.334Z,6.40
2017-11-04T07:06:34.631Z,6.50
2017-11-04T07:09:02.378Z,6.60
2017-11-04T07:11:30.131Z,6.60
2017-11-04T07:13:57.122Z,6.60
2017-11-04T07:16:24.105Z,6.60
2017-11-04T07:18:51.093Z,6.60
2017-11-04T07:21:18.091Z,6.70
2017-11-04T07:23:45.081Z,6.70
2017-11-04T07:26:12.067Z,6.80
2017-11-04T07:28:39.065Z,6.90
2017-11-04T07:31:06.808Z,7.10
2017-11-04T07:33:34.574Z,7.10
2017-11-04T07:36:01.557Z,7.00
2017-11-04T07:38:28.552Z,7.10
2017-11-04T07:40:55.530Z,7.10
2017-11-04T07:43:22.539Z,7.20
2017-11-04T07:45:49.532Z,7.20
2017-11-04T07:48:16.518Z,7.30
2017-11-04T07:50:43.498Z,7.50
2017-11-04T07:53:11.253Z,7.70
2017-11-04T07:55:39.010Z,7.80
2017-11-04T07:58:05.994Z,7.80
2017-11-04T08:00:32.990Z,7.90
2017-11-04T08:02:59.974Z,7.90
2017-11-04T08:05:26.962Z,8.00
2017-11-04T08:07:53.946Z,7.90
2017-11-04T08:10:21.806Z,8.00
2017-11-04T08:12:48.789Z,8.00
2017-11-04T08:15:15.782Z,8.10
2017-11-04T08:17:42.786Z,8.10
2017-11-04T08:20:09.775Z,8.20
2017-11-04T08:22:36.757Z,8.20
2017-11-04T08:25:03.754Z,8.20
2017-11-04T08:27:30.750Z,8.40
2017-11-04T08:29:57.741Z,8.40
2017-11-04T08:32:24.729Z,8.40
2017-11-04T08:34:52.489Z,8.30
2017-11-04T08:37:20.245Z,8.30
2017-11-04T08:39:47.250Z,8.30
2017-11-04T08:42:14.233Z,8.40
2017-11-04T08:44:41.985Z,8.60
2017-11-04T08:47:08.986Z,8.50
2017-11-04T08:49:35.981Z,8.60
2017-11-04T08:52:02.979Z,8.60
2017-11-04T08:54:29.965Z,8.60
2017-11-04T08:56:56.963Z,8.80
2017-11-04T08:59:23.941Z,9.00
2017-11-04T09:01:50.938Z,9.10
2017-11-04T09:04:17.924Z,9.20
2017-11-04T09:06:44.919Z,9.40
2017-11-04T09:09:12.669Z,9.80
2017-11-04T09:11:40.433Z,9.90
2017-11-04T09:14:08.194Z,10.10
2017-11-04T09:16:35.956Z,10.30
2017-11-04T09:19:02.947Z,10.30
2017-11-04T09:21:29.945Z,10.50
2017-11-04T09:23:57.705Z,10.90
2017-11-04T09:26:24.714Z,10.90
2017-11-04T09:28:51.715Z,11.10
2017-11-04T09:31:19.477Z,11.60
2017-11-04T09:33:47.235Z,11.70
2017-11-04T09:36:14.996Z,11.70
2017-11-04T09:38:42.757Z,11.70
2017-11-04T09:41:09.754Z,11.70
2017-11-04T09:43:36.745Z,12.00
2017-11-04T09:46:04.510Z,12.70
2017-11-04T09:48:31.507Z,12.70
2017-11-04T09:50:58.502Z,13.00
2017-11-04T09:53:26.261Z,13.30
2017-11-04T09:55:54.019Z,13.50
2017-11-04T09:58:21.026Z,13.50
2017-11-04T10:00:48.020Z,13.80
2017-11-04T10:03:15.784Z,13.70
2017-11-04T10:05:43.538Z,13.80
2017-11-04T10:08:10.538Z,13.80
2017-11-04T10:10:37.533Z,13.80
2017-11-04T10:13:04.522Z,13.80
2017-11-04T10:15:31.517Z,13.80
2017-11-04T10:17:58.518Z,14.10
2017-11-04T10:20:25.509Z,14.10
2017-11-04T10:22:52.522Z,13.90
2017-11-04T10:25:19.510Z,14.00
2017-11-04T10:27:47.274Z,14.00
2017-11-04T10:30:15.033Z,14.10
2017-11-04T10:32:42.054Z,14.10
2017-11-04T10:35:09.043Z,14.50
2017-11-04T10:37:36.801Z,16.60
2017-11-04T10:40:04.562Z,17.50
2017-11-04T10:42:38.215Z,17.70
2017-11-04T10:45:05.219Z,17.60
2017-11-04T10:47:32.214Z,17.80
2017-11-04T10:49:59.210Z,18.20
2017-11-04T10:52:26.206Z,18.60
2017-11-04T10:54:53.216Z,19.00
2017-11-04T10:57:20.198Z,19.10
2017-11-04T10:59:47.199Z,19.40
2017-11-04T11:02:14.207Z,18.80
2017-11-04T11:04:41.270Z,19.90
2017-11-04T11:07:09.026Z,20.90
2017-11-04T11:09:36.786Z,21.10
2017-11-04T11:12:04.550Z,21.50
2017-11-04T11:14:32.322Z,22.00
2017-11-04T11:17:00.077Z,22.30
2017-11-04T11:19:27.839Z,21.70
2017-11-04T11:21:54.825Z,21.60
2017-11-04T11:24:21.833Z,21.50
2017-11-04T11:26:49.594Z,22.90
2017-11-04T11:29:17.359Z,23.70
2017-11-04T11:31:45.120Z,23.90
2017-11-04T11:34:12.117Z,23.90
2017-11-04T11:36:39.118Z,23.50
2017-11-04T11:39:06.896Z,22.20
2017-11-04T11:41:34.659Z,22.00
2017-11-04T11:44:01.663Z,21.90
2017-11-04T11:46:29.107Z,21.50
2017-11-04T11:48:56.547Z,20.60
2017-11-04T11:51:23.995Z,20.00
2017-11-04T11:53:51.521Z,19.50
2017-11-04T11:56:19.739Z,19.10
2017-11-04T11:58:47.182Z,19.10
2017-11-04T12:01:14.639Z,19.20
2017-11-04T12:03:42.098Z,18.60
2017-11-04T12:06:09.548Z,19.00
2017-11-04T12:08:36.983Z,19.40
2017-11-04T12:11:04.431Z,20.10
2017-11-04T12:13:32.647Z,19.90
2017-11-04T12:16:00.103Z,19.90
2017-11-04T12:18:27.101Z,19.40
2017-11-04T12:20:54.878Z,19.90
2017-11-04T12:23:22.638Z,19.90
2017-11-04T12:25:50.414Z,20.10
2017-11-04T12:28:18.165Z,20.30
2017-11-04T12:30:45.930Z,20.10
2017-11-04T12:33:13.689Z,20.30
2017-11-04T12:35:41.466Z,20.30
2017-11-04T12:38:08.458Z,20.30
2017-11-04T12:40:35.468Z,19.50
2017-11-04T12:43:02.466Z,19.50
2017-11-04T12:45:29.482Z,19.60
2017-11-04T12:47:56.479Z,19.90
2017-11-04T12:50:24.237Z,20.10
2017-11-04T12:52:52.021Z,19.80
2017-11-04T12:55:19.029Z,19.80
2017-11-04T12:57:46.047Z,19.40
2017-11-04T13:00:13.154Z,19.50
2017-11-04T13:02:40.160Z,19.70
2017-11-04T13:05:07.169Z,20.20
2017-11-04T13:07:34.166Z,20.50
2017-11-04T13:10:01.957Z,19.60
2017-11-04T13:12:29.705Z,19.20
2017-11-04T13:14:57.476Z,19.20
2017-11-04T13:17:25.450Z,19.60
2017-11-04T13:19:52.447Z,19.60
2017-11-04T13:22:19.481Z,19.90
2017-11-04T13:24:46.479Z,19.90
2017-11-04T13:27:14.255Z,19.80
2017-11-04T13:29:41.247Z,19.80
2017-11-04T13:32:08.269Z,19.90
2017-11-04T13:34:35.267Z,19.60
2017-11-04T13:37:03.052Z,19.50
2017-11-04T13:39:30.048Z,19.50
2017-11-04T13:41:57.071Z,19.70
2017-11-04T13:44:24.079Z,19.70
2017-11-04T13:46:51.870Z,20.00
2017-11-04T13:49:18.894Z,19.90
2017-11-04T13:51:45.912Z,19.80
2017-11-04T13:54:12.911Z,19.80
2017-11-04T13:56:39.902Z,20.00
2017-11-04T13:59:06.925Z,19.50
2017-11-04T14:01:33.949Z,19.50
2017-11-04T14:04:00.946Z,19.70
2017-11-04T14:06:27.961Z,19.30
2017-11-04T14:08:54.978Z,19.20
2017-11-04T14:11:21.995Z,19.10
2017-11-04T14:13:49.763Z,19.20
2017-11-04T14:16:17.517Z,19.20
2017-11-04T14:18:45.303Z,19.10
2017-11-04T14:21:12.295Z,19.10
2017-11-04T14:23:39.290Z,19.00
2017-11-04T14:26:06.282Z,19.00
2017-11-04T14:28:33.285Z,18.90
2017-11-04T14:31:00.278Z,19.00
2017-11-04T14:33:27.286Z,18.90
2017-11-04T14:35:54.285Z,18.80
2017-11-04T14:38:21.282Z,18.70
2017-11-04T14:40:48.274Z,18.60
2017-11-04T14:43:15.271Z,18.50
2017-11-04T14:45:42.273Z,18.30
2017-11-04T14:48:09.266Z,18.30
2017-11-04T14:50:36.274Z,18.20
2017-11-04T14:53:04.029Z,18.00
2017-11-04T14:55:31.833Z,17.90
2017-11-04T14:57:58.825Z,17.90
2017-11-04T15:00:25.825Z,17.90
2017-11-04T15:02:52.815Z,17.90
2017-11-04T15:05:19.813Z,17.80
2017-11-04T15:07:46.801Z,17.60
2017-11-04T15:10:13.804Z,17.60
2017-11-04T15:12:40.794Z,17.50
2017-11-04T15:15:07.794Z,17.40
2017-11-04T15:17:34.782Z,17.40
2017-11-04T15:20:01.786Z,17.10
2017-11-04T15:22:28.774Z,16.90
2017-11-04T15:24:55.788Z,16.70
2017-11-04T15:27:22.762Z,16.60
2017-11-04T15:29:49.787Z,16.60
2017-11-04T15:32:16.781Z,16.40
2017-11-04T15:34:44.542Z,16.10
2017-11-04T15:37:12.329Z,15.90
2017-11-04T15:39:39.326Z,15.80
2017-11-04T15:42:06.374Z,15.70
2017-11-04T15:44:33.372Z,15.60
2017-11-04T15:47:00.365Z,15.40
2017-11-04T15:49:27.358Z,15.30
2017-11-04T15:51:54.355Z,15.20
2017-11-04T15:54:21.355Z,15.10
2017-11-04T15:56:48.346Z,15.00
2017-11-04T15:59:15.344Z,14.80
2017-11-04T16:01:42.343Z,14.70
2017-11-04T16:04:09.331Z,14.50
2017-11-04T16:06:36.326Z,14.50
2017-11-04T16:09:03.329Z,14.40
2017-11-04T16:11:30.322Z,14.30
2017-11-04T16:13:57.309Z,14.20
2017-11-04T16:16:24.310Z,14.10
2017-11-04T16:18:51.310Z,14.10
2017-11-04T16:21:18.315Z,14.10
2017-11-04T16:23:45.325Z,14.10
2017-11-04T16:26:12.318Z,14.10
2017-11-04T16:28:40.077Z,13.90
2017-11-04T16:31:07.838Z,13.80
2017-11-04T16:33:35.601Z,13.70
2017-11-04T16:36:03.361Z,13.60
2017-11-04T16:38:30.367Z,13.60
2017-11-04T16:40:57.364Z,13.50
2017-11-04T16:43:25.181Z,13.40
2017-11-04T16:45:52.157Z,13.40
2017-11-04T16:48:19.217Z,13.30
2017-11-04T16:50:46.976Z,13.20
2017-11-04T16:53:14.737Z,13.20
2017-11-04T16:55:42.494Z,13.10
2017-11-04T16:58:09.555Z,13.10
2017-11-04T17:00:37.351Z,13.00
2017-11-04T17:03:04.351Z,12.90
2017-11-04T17:05:31.337Z,13.00
2017-11-04T17:07:58.339Z,13.00
2017-11-04T17:10:25.332Z,12.90
2017-11-04T17:12:52.334Z,12.90
2017-11-04T17:15:19.320Z,12.90
2017-11-04T17:20:19.833Z,12.90
2017-11-04T17:22:47.600Z,12.80
2017-11-04T17:25:15.419Z,12.70
2017-11-04T17:27:42.403Z,12.70
2017-11-04T17:30:10.168Z,12.60
2017-11-04T17:32:37.917Z,12.60
2017-11-04T17:35:04.925Z,12.60
2017-11-04T17:37:31.914Z,12.50
2017-11-04T17:39:59.678Z,12.40
2017-11-04T17:42:26.669Z,12.40
2017-11-04T17:44:53.673Z,12.40
2017-11-04T17:47:21.426Z,12.20
2017-11-04T17:49:48.425Z,12.20
2017-11-04T17:52:15.474Z,12.20
2017-11-04T17:54:42.462Z,12.20
2017-11-04T17:57:09.466Z,12.20
2017-11-04T17:59:36.462Z,12.10
2017-11-04T18:02:04.218Z,12.00
2017-11-04T18:04:31.355Z,11.90
2017-11-04T18:06:58.398Z,11.90
2017-11-04T18:09:25.403Z,11.90
2017-11-04T18:11:52.398Z,11.90
2017-11-04T18:14:19.414Z,11.90
2017-11-04T18:16:46.416Z,11.90
2017-11-04T18:19:14.167Z,11.80
2017-11-04T18:21:41.973Z,11.90
2017-11-04T18:24:09.015Z,11.80
2017-11-04T18:26:35.997Z,11.80
2017-11-04T18:29:03.004Z,11.70
2017-11-04T18:31:30.053Z,11.70
2017-11-04T18:33:57.037Z,11.70
2017-11-04T18:36:24.097Z,11.60
2017-11-04T18:38:51.086Z,11.60
2017-11-04T18:41:18.129Z,11.50
2017-11-04T18:43:45.109Z,11.50
2017-11-04T18:46:12.105Z,11.50
2017-11-04T18:48:39.101Z,11.40
2017-11-04T18:51:06.157Z,11.40
2017-11-04T18:53:33.138Z,11.40
2017-11-04T18:56:00.960Z,11.30
2017-11-04T18:58:27.937Z,11.30
2017-11-04T19:00:55.719Z,11.10
2017-11-04T19:03:22.711Z,11.10
2017-11-04T19:05:49.762Z,11.10
2017-11-04T19:08:16.746Z,11.00
2017-11-04T19:10:44.497Z,11.00
2017-11-04T19:13:12.308Z,10.90
2017-11-04T19:15:39.286Z,10.90
2017-11-04T19:18:06.293Z,10.90
2017-11-04T19:20:33.289Z,10.90
2017-11-04T19:23:00.346Z,10.90
2017-11-04T19:25:27.333Z,10.80
2017-11-04T19:27:54.369Z,10.80
2017-11-04T19:30:21.354Z,10.70
2017-11-04T19:32:48.349Z,10.60
2017-11-04T19:35:15.339Z,10.60
2017-11-04T19:37:42.342Z,10.60
2017-11-04T19:40:09.333Z,10.50
2017-11-04T19:42:36.561Z,10.50
2017-11-04T19:45:03.550Z,10.50
2017-11-04T19:47:30.542Z,10.50
2017-11-04T19:49:57.588Z,10.50
2017-11-04T19:52:24.617Z,10.40
2017-11-04T19:54:52.425Z,10.40
2017-11-04T19:57:19.454Z,10.40
2017-11-04T19:59:46.441Z,10.40
2017-11-04T20:02:13.439Z,10.40
2017-11-04T20:04:41.230Z,10.30
2017-11-04T20:07:08.253Z,10.30
2017-11-04T20:09:35.290Z,10.20
2017-11-04T20:12:02.306Z,10.20
2017-11-04T20:14:30.169Z,10.10
2017-11-04T20:16:57.933Z,10.10
2017-11-04T20:19:25.705Z,10.00
2017-11-04T20:21:53.541Z,10.00
2017-11-04T20:24:20.558Z,9.90
2017-11-04T20:26:47.626Z,10.00
2017-11-04T20:29:14.637Z,9.90
2017-11-04T20:31:41.690Z,9.90
2017-11-04T20:34:08.734Z,9.90
2017-11-04T20:36:35.729Z,9.90
2017-11-04T20:39:03.556Z,9.90
2017-11-04T20:41:30.589Z,9.90
2017-11-04T20:43:57.641Z,9.90
2017-11-04T20:46:24.645Z,9.90
2017-11-04T20:48:52.464Z,9.90
2017-11-04T20:51:19.461Z,9.80
2017-11-04T20:53:47.281Z,9.90
2017-11-04T20:56:14.297Z,9.90
2017-11-04T20:58:41.346Z,9.80
2017-11-04T21:01:08.402Z,9.80
2017-11-04T21:03:35.391Z,9.70
2017-11-04T21:06:02.442Z,9.70
2017-11-04T21:08:29.489Z,9.60
2017-11-04T21:10:57.252Z,9.60
2017-11-04T21:13:25.016Z,9.60
2017-11-04T21:15:52.780Z,9.50
2017-11-04T21:18:20.537Z,9.50
2017-11-04T21:20:48.315Z,9.50
2017-11-04T21:23:16.080Z,9.50
2017-11-04T21:25:43.869Z,9.50
2017-11-04T21:28:10.858Z,9.40
2017-11-04T21:30:37.883Z,9.50
2017-11-04T21:33:05.237Z,9.40
2017-11-04T21:35:32.301Z,9.40
2017-11-04T21:37:59.309Z,9.40
2017-11-04T21:40:26.388Z,9.40
2017-11-04T21:42:53.436Z,9.40
2017-11-04T21:45:20.414Z,9.40
2017-11-04T21:47:48.233Z,9.40
2017-11-04T21:50:15.268Z,9.30
2017-11-04T21:52:42.325Z,9.30
2017-11-04T21:55:09.306Z,9.30
2017-11-04T21:57:37.221Z,9.20
2017-11-04T22:00:04.229Z,9.20
2017-11-04T22:02:32.003Z,9.10
2017-11-04T22:04:59.769Z,9.10
2017-11-04T22:07:27.545Z,9.10
2017-11-04T22:09:54.589Z,9.10
2017-11-04T22:12:21.638Z,9.10
2017-11-04T22:14:49.497Z,9.10
2017-11-04T22:17:17.302Z,9.10
2017-11-04T22:19:44.289Z,9.00
2017-11-04T22:22:12.622Z,9.10
2017-11-04T22:24:39.634Z,9.00
2017-11-04T22:27:06.758Z,9.00
2017-11-04T22:29:34.525Z,9.00
2017-11-04T22:32:02.922Z,8.90
2017-11-04T22:34:29.903Z,8.90
2017-11-04T22:36:56.898Z,8.90
2017-11-04T22:39:24.716Z,8.90
2017-11-04T22:41:52.415Z,8.90
2017-11-04T22:44:19.423Z,8.80
2017-11-04T22:46:46.495Z,8.90
2017-11-04T22:49:13.474Z,8.80
2017-11-04T22:51:40.465Z,8.80
2017-11-04T22:54:07.462Z,8.80
2017-11-04T22:56:34.473Z,8.90
2017-11-04T22:59:01.481Z,8.90
2017-11-04T23:01:28.479Z,8.90
2017-11-04T23:03:56.276Z,8.90
2017-11-04T23:06:23.282Z,8.90
2017-11-04T23:08:51.046Z,8.90
2017-11-04T23:11:18.802Z,8.90
2017-11-04T23:13:45.895Z,8.90
2017-11-04T23:16:13.371Z,8.80
2017-11-04T23:18:40.618Z,8.80
2017-11-04T23:21:07.655Z,8.80
2017-11-04T23:23:34.658Z,8.70
2017-11-04T23:26:02.413Z,8.70
2017-11-04T23:28:30.070Z,8.70
2017-11-04T23:30:57.054Z,8.80
2017-11-04T23:33:24.072Z,8.80
2017-11-04T23:35:51.050Z,8.80
2017-11-04T23:38:18.054Z,8.80
2017-11-04T23:40:45.047Z,8.80
2017-11-04T23:43:12.042Z,8.70
2017-11-04T23:45:39.054Z,8.80
2017-11-04T23:48:06.070Z,8.70
2017-11-04T23:50:33.099Z,8.90
2017-11-04T23:53:00.861Z,8.80
2017-11-04T23:55:29.426Z,8.80
2017-11-04T23:57:56.434Z,8.80
